createdAt,value
2018-06-02T00:01:45.804Z,74.57
2018-06-02T00:04:15.397Z,74.71
2018-06-02T00:06:44.959Z,74.76
2018-06-02T00:09:14.572Z,74.78
2018-06-02T00:11:44.153Z,74.67
2018-06-02T00:14:13.709Z,74.65
2018-06-02T00:16:43.264Z,74.57
2018-06-02T00:19:12.858Z,74.66
2018-06-02T00:21:42.410Z,74.28
2018-06-02T00:24:12.006Z,74.23
2018-06-02T00:26:41.572Z,74.59
2018-06-02T00:29:11.134Z,74.62
2018-06-02T00:31:40.754Z,74.44
2018-06-02T00:34:10.322Z,74.46
2018-06-02T00:36:39.912Z,74.58
2018-06-02T00:39:09.252Z,74.66
2018-06-02T00:41:38.647Z,74.49
2018-06-02T00:44:07.991Z,74.42
2018-06-02T00:46:37.675Z,74.27
2018-06-02T00:49:06.920Z,74.51
2018-06-02T00:51:36.494Z,74.70
2018-06-02T00:54:06.056Z,74.67
2018-06-02T00:56:35.627Z,74.67
2018-06-02T00:59:05.335Z,74.54
2018-06-02T01:01:34.892Z,74.66
2018-06-02T01:04:04.253Z,74.54
2018-06-02T01:06:33.617Z,74.52
2018-06-02T01:09:03.192Z,74.69
2018-06-02T01:11:32.551Z,74.79
2018-06-02T01:14:02.131Z,74.67
2018-06-02T01:16:31.502Z,74.09
2018-06-02T01:19:00.840Z,74.31
2018-06-02T01:21:30.207Z,73.90
2018-06-02T01:23:59.842Z,73.60
2018-06-02T01:26:29.440Z,73.45
2018-06-02T01:28:59.011Z,73.65
2018-06-02T01:31:28.673Z,73.69
2018-06-02T01:33:58.268Z,73.93
2018-06-02T01:36:27.842Z,73.92
2018-06-02T01:38:57.396Z,74.24
2018-06-02T01:41:26.719Z,74.30
2018-06-02T01:43:56.075Z,74.40
2018-06-02T01:46:25.747Z,74.49
2018-06-02T01:48:55.378Z,74.57
2018-06-02T01:51:24.946Z,74.96
2018-06-02T01:53:54.532Z,74.68
2018-06-02T01:56:24.083Z,75.17
2018-06-02T01:58:53.675Z,75.20
2018-06-02T02:01:23.236Z,75.43
2018-06-02T02:03:52.796Z,75.39
2018-06-02T02:06:22.412Z,75.74
2018-06-02T02:08:51.981Z,75.87
2018-06-02T02:11:21.607Z,75.54
2018-06-02T02:13:53.021Z,75.73
2018-06-02T02:16:22.598Z,75.67
2018-06-02T02:18:51.923Z,75.94
2018-06-02T02:21:21.394Z,75.64
2018-06-02T02:23:50.969Z,75.71
2018-06-02T02:26:20.528Z,75.94
2018-06-02T02:28:50.101Z,75.57
2018-06-02T02:31:19.682Z,75.12
2018-06-02T02:33:49.235Z,75.01
2018-06-02T02:36:18.944Z,74.52
2018-06-02T02:38:48.344Z,74.56
2018-06-02T02:41:17.707Z,74.82
2018-06-02T02:43:47.268Z,74.96
2018-06-02T02:46:17.009Z,74.55
2018-06-02T02:48:46.562Z,74.39
2018-06-02T02:51:16.127Z,74.32
2018-06-02T02:53:45.696Z,74.15
2018-06-02T02:56:15.411Z,74.01
2018-06-02T02:58:45.198Z,73.57
2018-06-02T03:01:14.747Z,73.53
2018-06-02T03:03:44.336Z,73.04
2018-06-02T03:06:13.919Z,72.55
2018-06-02T03:08:43.488Z,72.38
2018-06-02T03:11:13.802Z,72.14
2018-06-02T03:13:43.360Z,71.86
2018-06-02T03:16:13.010Z,72.02
2018-06-02T03:18:42.563Z,71.87
2018-06-02T03:21:12.136Z,72.07
2018-06-02T03:23:41.692Z,72.18
2018-06-02T03:26:11.248Z,71.97
2018-06-02T03:28:40.818Z,71.93
2018-06-02T03:31:10.381Z,72.15
2018-06-02T03:33:39.949Z,71.98
2018-06-02T03:36:09.534Z,72.08
2018-06-02T03:38:39.092Z,72.05
2018-06-02T03:41:08.648Z,72.26
2018-06-02T03:43:38.217Z,72.24
2018-06-02T03:46:07.808Z,72.23
2018-06-02T03:48:37.415Z,72.13
2018-06-02T03:51:07.048Z,71.94
2018-06-02T03:53:36.606Z,71.97
2018-06-02T03:56:06.164Z,71.83
2018-06-02T03:58:35.749Z,71.70
2018-06-02T04:01:05.458Z,71.70
2018-06-02T04:03:35.192Z,71.63
2018-06-02T04:06:04.739Z,71.57
2018-06-02T04:08:34.303Z,71.30
2018-06-02T04:11:03.871Z,71.49
2018-06-02T04:13:35.371Z,71.08
2018-06-02T04:16:04.709Z,70.84
2018-06-02T04:18:34.275Z,70.41
2018-06-02T04:21:03.612Z,70.37
2018-06-02T04:23:33.252Z,69.92
2018-06-02T04:26:02.577Z,69.55
2018-06-02T04:28:32.148Z,69.61
2018-06-02T04:31:01.727Z,69.54
2018-06-02T04:33:31.281Z,69.25
2018-06-02T04:36:00.859Z,68.49
2018-06-02T04:38:30.475Z,68.19
2018-06-02T04:41:00.020Z,67.74
2018-06-02T04:43:29.595Z,67.92
2018-06-02T04:45:59.173Z,67.06
2018-06-02T04:48:29.034Z,66.79
2018-06-02T04:50:58.603Z,66.36
2018-06-02T04:53:28.177Z,66.33
2018-06-02T04:55:57.722Z,66.28
2018-06-02T04:58:27.398Z,65.99
2018-06-02T05:00:56.968Z,65.60
2018-06-02T05:03:26.531Z,65.28
2018-06-02T05:05:56.201Z,64.79
2018-06-02T05:08:25.897Z,65.10
2018-06-02T05:10:55.448Z,64.80
2018-06-02T05:13:25.009Z,64.51
2018-06-02T05:15:54.723Z,64.33
2018-06-02T05:18:24.300Z,64.25
2018-06-02T05:20:53.992Z,64.30
2018-06-02T05:23:23.545Z,63.95
2018-06-02T05:25:53.098Z,63.57
2018-06-02T05:28:22.678Z,62.74
2018-06-02T05:30:52.266Z,62.59
2018-06-02T05:33:22.100Z,61.97
2018-06-02T05:35:51.717Z,61.96
2018-06-02T05:38:21.301Z,61.61
2018-06-02T05:40:50.859Z,61.36
2018-06-02T05:43:20.208Z,60.90
2018-06-02T05:45:49.787Z,60.62
2018-06-02T05:48:19.339Z,60.54
2018-06-02T05:50:48.928Z,60.11
2018-06-02T05:53:18.532Z,59.81
2018-06-02T05:55:48.087Z,59.96
2018-06-02T05:58:17.681Z,59.72
2018-06-02T06:00:47.251Z,59.50
2018-06-02T06:03:17.298Z,59.00
2018-06-02T06:05:46.879Z,59.31
2018-06-02T06:08:16.533Z,59.50
2018-06-02T06:10:46.091Z,59.50
2018-06-02T06:13:15.644Z,59.49
2018-06-02T06:15:45.267Z,59.19
2018-06-02T06:18:14.869Z,59.20
2018-06-02T06:20:44.434Z,59.27
2018-06-02T06:23:13.998Z,59.31
2018-06-02T06:25:43.550Z,58.83
2018-06-02T06:28:13.153Z,58.61
2018-06-02T06:30:42.740Z,58.90
2018-06-02T06:33:12.353Z,59.31
2018-06-02T06:35:42.059Z,59.06
2018-06-02T06:38:11.620Z,59.06
2018-06-02T06:40:41.170Z,58.92
2018-06-02T06:43:10.718Z,58.78
2018-06-02T06:45:40.301Z,58.04
2018-06-02T06:48:09.951Z,58.05
2018-06-02T06:50:39.525Z,57.60
2018-06-02T06:53:09.277Z,57.50
2018-06-02T06:55:38.881Z,57.14
2018-06-02T06:58:08.440Z,56.95
2018-06-02T07:00:38.001Z,57.06
2018-06-02T07:03:07.580Z,57.10
2018-06-02T07:05:37.145Z,56.47
2018-06-02T07:08:06.703Z,56.63
2018-06-02T07:10:36.011Z,55.69
2018-06-02T07:13:05.597Z,55.59
2018-06-02T07:15:35.148Z,55.24
2018-06-02T07:18:04.717Z,55.45
2018-06-02T07:20:34.279Z,55.32
2018-06-02T07:23:03.828Z,55.06
2018-06-02T07:25:33.414Z,54.27
2018-06-02T07:28:03.117Z,54.28
2018-06-02T07:30:32.655Z,54.24
2018-06-02T07:33:02.219Z,53.65
2018-06-02T07:35:31.808Z,53.06
2018-06-02T07:38:01.625Z,53.08
2018-06-02T07:40:31.166Z,52.09
2018-06-02T07:43:00.757Z,51.53
2018-06-02T07:45:30.375Z,51.84
2018-06-02T07:47:59.915Z,51.58
2018-06-02T07:50:29.756Z,50.93
2018-06-02T07:52:59.308Z,50.38
2018-06-02T07:55:28.866Z,50.13
2018-06-02T07:57:58.440Z,50.54
2018-06-02T08:00:28.059Z,51.26
2018-06-02T08:02:57.631Z,51.30
2018-06-02T08:05:27.873Z,51.42
2018-06-02T08:07:57.435Z,51.52
2018-06-02T08:10:27.056Z,51.15
2018-06-02T08:12:56.634Z,51.46
2018-06-02T08:15:26.180Z,51.34
2018-06-02T08:17:55.518Z,51.83
2018-06-02T08:20:25.071Z,51.96
2018-06-02T08:22:54.393Z,52.83
2018-06-02T08:25:23.959Z,53.23
2018-06-02T08:27:53.562Z,53.57
2018-06-02T08:30:23.167Z,53.24
2018-06-02T08:32:52.722Z,53.07
2018-06-02T08:35:22.285Z,52.77
2018-06-02T08:37:51.849Z,52.64
2018-06-02T08:40:21.402Z,52.71
2018-06-02T08:42:50.972Z,53.10
2018-06-02T08:45:20.534Z,53.43
2018-06-02T08:47:50.083Z,52.95
2018-06-02T08:50:19.658Z,53.40
2018-06-02T08:52:49.200Z,53.26
2018-06-02T08:55:18.789Z,53.39
2018-06-02T08:57:48.358Z,54.26
2018-06-02T09:00:17.914Z,53.83
2018-06-02T09:02:47.518Z,54.04
2018-06-02T09:05:17.128Z,54.59
2018-06-02T09:07:47.025Z,54.33
2018-06-02T09:10:16.687Z,54.71
2018-06-02T09:12:46.279Z,54.42
2018-06-02T09:15:15.901Z,54.27
2018-06-02T09:17:45.451Z,54.29
2018-06-02T09:20:15.036Z,55.60
2018-06-02T09:22:44.267Z,54.93
2018-06-02T09:25:13.834Z,54.46
2018-06-02T09:27:43.428Z,54.09
2018-06-02T09:30:13.143Z,53.46
2018-06-02T09:32:42.719Z,52.71
2018-06-02T09:35:12.141Z,51.80
2018-06-02T09:37:41.879Z,51.34
2018-06-02T09:40:11.436Z,51.26
2018-06-02T09:42:40.989Z,50.29
2018-06-02T09:45:10.613Z,49.75
2018-06-02T09:47:40.225Z,49.33
2018-06-02T09:50:09.977Z,49.74
2018-06-02T09:52:39.594Z,49.32
2018-06-02T09:55:09.342Z,49.64
2018-06-02T09:57:38.935Z,49.05
2018-06-02T10:00:08.646Z,49.29
2018-06-02T10:02:38.211Z,48.55
2018-06-02T10:05:07.765Z,47.31
2018-06-02T10:07:37.406Z,46.48
2018-06-02T10:10:07.298Z,47.01
2018-06-02T10:12:37.020Z,48.42
2018-06-02T10:15:06.559Z,48.02
2018-06-02T10:17:36.110Z,47.57
2018-06-02T10:20:05.701Z,47.27
2018-06-02T10:22:35.356Z,46.82
2018-06-02T10:25:04.978Z,46.38
2018-06-02T10:27:34.540Z,48.07
2018-06-02T10:30:04.227Z,50.01
2018-06-02T10:32:33.834Z,51.24
2018-06-02T10:35:03.416Z,52.29
2018-06-02T10:37:32.955Z,52.75
2018-06-02T10:40:02.515Z,51.63
2018-06-02T10:42:32.075Z,50.44
2018-06-02T10:45:01.654Z,49.86
2018-06-02T10:47:31.281Z,49.11
2018-06-02T10:50:00.849Z,48.87
2018-06-02T10:52:30.469Z,48.74
2018-06-02T10:55:00.068Z,48.81
2018-06-02T10:57:29.622Z,47.76
2018-06-02T10:59:59.232Z,48.89
2018-06-02T11:02:28.800Z,48.13
2018-06-02T11:04:58.497Z,47.83
2018-06-02T11:07:28.212Z,48.99
2018-06-02T11:09:57.553Z,49.35
2018-06-02T11:12:27.267Z,49.05
2018-06-02T11:14:56.941Z,48.14
2018-06-02T11:17:26.491Z,47.96
2018-06-02T11:19:56.038Z,47.68
2018-06-02T11:22:25.611Z,47.83
2018-06-02T11:24:55.772Z,46.50
2018-06-02T11:27:25.349Z,45.77
2018-06-02T11:29:54.979Z,44.24
2018-06-02T11:32:24.531Z,45.83
2018-06-02T11:34:54.101Z,45.81
2018-06-02T11:37:23.679Z,46.30
2018-06-02T11:39:53.234Z,46.65
2018-06-02T11:42:22.823Z,46.64
2018-06-02T11:44:52.405Z,46.56
2018-06-02T11:47:21.987Z,46.85
2018-06-02T11:49:51.539Z,47.81
2018-06-02T11:52:21.213Z,48.85
2018-06-02T11:54:50.783Z,49.84
2018-06-02T11:57:20.347Z,48.08
2018-06-02T11:59:49.907Z,46.81
2018-06-02T12:02:19.462Z,46.46
2018-06-02T12:04:49.026Z,44.56
2018-06-02T12:07:18.597Z,44.04
2018-06-02T12:09:48.153Z,42.62
2018-06-02T12:12:17.699Z,43.66
2018-06-02T12:14:47.278Z,44.33
2018-06-02T12:17:16.833Z,44.91
2018-06-02T12:19:46.413Z,44.95
2018-06-02T12:22:15.983Z,45.03
2018-06-02T12:24:45.556Z,45.93
2018-06-02T12:27:15.123Z,46.52
2018-06-02T12:29:44.741Z,46.32
2018-06-02T12:32:14.303Z,47.30
2018-06-02T12:34:43.939Z,47.43
2018-06-02T12:37:13.697Z,47.81
2018-06-02T12:39:43.396Z,47.55
2018-06-02T12:42:13.155Z,47.00
2018-06-02T12:44:42.737Z,47.41
2018-06-02T12:47:12.342Z,48.13
2018-06-02T12:49:41.887Z,47.75
2018-06-02T12:52:11.147Z,46.41
2018-06-02T12:54:40.791Z,45.99
2018-06-02T12:57:10.350Z,46.44
2018-06-02T12:59:40.026Z,47.07
2018-06-02T13:02:09.800Z,47.14
2018-06-02T13:04:39.476Z,46.12
2018-06-02T13:07:09.039Z,46.14
2018-06-02T13:09:38.605Z,45.65
2018-06-02T13:12:08.159Z,45.54
2018-06-02T13:14:37.754Z,45.54
2018-06-02T13:17:07.508Z,46.09
2018-06-02T13:19:37.067Z,46.21
2018-06-02T13:22:06.639Z,45.66
2018-06-02T13:24:36.208Z,46.11
2018-06-02T13:27:05.783Z,46.42
2018-06-02T13:29:35.354Z,47.33
2018-06-02T13:32:05.049Z,47.88
2018-06-02T13:34:34.603Z,47.42
2018-06-02T13:37:04.190Z,47.74
2018-06-02T13:39:33.747Z,49.17
2018-06-02T13:42:03.095Z,49.61
2018-06-02T13:44:32.671Z,49.74
2018-06-02T13:47:02.225Z,50.06
2018-06-02T13:49:31.800Z,50.10
2018-06-02T13:52:01.340Z,50.10
2018-06-02T13:54:31.684Z,50.14
2018-06-02T13:57:01.278Z,50.82
2018-06-02T13:59:30.845Z,51.74
2018-06-02T14:02:00.408Z,51.76
2018-06-02T14:04:30.042Z,52.58
2018-06-02T14:06:59.640Z,51.80
2018-06-02T14:09:29.330Z,51.87
2018-06-02T14:11:58.894Z,52.55
2018-06-02T14:14:28.448Z,52.98
2018-06-02T14:16:58.022Z,52.86
2018-06-02T14:19:27.576Z,52.76
2018-06-02T14:21:57.220Z,53.15
2018-06-02T14:24:26.922Z,52.71
2018-06-02T14:26:56.509Z,52.48
2018-06-02T14:29:26.066Z,51.87
2018-06-02T14:31:55.640Z,51.57
2018-06-02T14:34:25.478Z,50.61
2018-06-02T14:36:55.315Z,48.41
2018-06-02T14:39:25.831Z,44.92
2018-06-02T14:41:55.156Z,43.58
2018-06-02T14:44:24.848Z,44.09
2018-06-02T14:46:54.390Z,42.86
2018-06-02T14:49:24.017Z,39.91
2018-06-02T14:51:53.764Z,40.70
2018-06-02T14:54:23.360Z,40.95
2018-06-02T14:56:52.949Z,42.19
2018-06-02T14:59:22.496Z,43.61
2018-06-02T15:01:52.052Z,43.86
2018-06-02T15:04:21.616Z,41.29
2018-06-02T15:06:51.247Z,36.67
2018-06-02T15:09:20.807Z,34.03
2018-06-02T15:11:50.377Z,31.62
2018-06-02T15:14:20.164Z,31.62
2018-06-02T15:16:49.712Z,34.16
2018-06-02T15:19:19.647Z,35.34
2018-06-02T15:21:49.204Z,34.73
2018-06-02T15:24:18.785Z,35.55
2018-06-02T15:26:48.470Z,36.71
2018-06-02T15:29:18.046Z,34.35
2018-06-02T15:31:47.595Z,31.09
2018-06-02T15:34:17.186Z,27.87
2018-06-02T15:36:46.738Z,25.47
2018-06-02T15:39:16.281Z,25.13
2018-06-02T15:41:45.859Z,24.93
2018-06-02T15:44:15.428Z,25.62
2018-06-02T15:46:45.028Z,26.56
2018-06-02T15:49:14.645Z,27.39
2018-06-02T15:51:44.191Z,27.13
2018-06-02T15:54:13.771Z,27.93
2018-06-02T15:56:43.460Z,28.27
2018-06-02T15:59:13.018Z,28.07
2018-06-02T16:01:42.588Z,29.37
2018-06-02T16:04:12.228Z,28.80
2018-06-02T16:06:41.782Z,28.64
2018-06-02T16:09:11.334Z,27.47
2018-06-02T16:11:41.007Z,27.16
2018-06-02T16:14:10.643Z,28.01
2018-06-02T16:16:40.263Z,28.21
2018-06-02T16:19:09.816Z,28.62
2018-06-02T16:21:39.078Z,28.85
2018-06-02T16:24:08.971Z,27.57
2018-06-02T16:26:38.546Z,28.41
2018-06-02T16:29:08.103Z,29.04
2018-06-02T16:31:37.672Z,31.31
2018-06-02T16:34:07.235Z,34.15
2018-06-02T16:36:36.794Z,35.50
2018-06-02T16:39:05.807Z,35.49
2018-06-02T16:41:35.370Z,35.22
2018-06-02T16:44:04.963Z,35.75
2018-06-02T16:46:34.255Z,35.90
2018-06-02T16:49:03.635Z,35.82
2018-06-02T16:51:32.959Z,36.38
2018-06-02T16:54:02.569Z,37.79
2018-06-02T16:56:31.843Z,39.07
2018-06-02T16:59:01.406Z,40.24
2018-06-02T17:01:30.974Z,41.41
2018-06-02T17:04:00.210Z,42.23
2018-06-02T17:06:29.529Z,43.04
2018-06-02T17:08:59.094Z,43.80
2018-06-02T17:11:28.655Z,43.96
2018-06-02T17:13:57.931Z,44.45
2018-06-02T17:16:27.715Z,45.04
2018-06-02T17:18:56.995Z,45.55
2018-06-02T17:21:26.695Z,45.69
2018-06-02T17:23:55.965Z,46.61
2018-06-02T17:26:25.543Z,46.98
2018-06-02T17:28:54.811Z,47.25
2018-06-02T17:31:24.095Z,47.62
2018-06-02T17:33:53.566Z,47.90
2018-06-02T17:36:22.914Z,48.61
2018-06-02T17:38:52.503Z,48.81
2018-06-02T17:41:21.800Z,49.31
2018-06-02T17:43:51.359Z,50.10
2018-06-02T17:46:20.823Z,50.62
2018-06-02T17:48:50.127Z,50.92
2018-06-02T17:51:19.403Z,51.09
2018-06-02T17:53:48.708Z,51.58
2018-06-02T17:56:18.034Z,51.85
2018-06-02T17:58:47.316Z,51.73
2018-06-02T18:01:16.591Z,51.60
2018-06-02T18:03:45.707Z,51.72
2018-06-02T18:06:14.986Z,51.82
2018-06-02T18:08:44.267Z,51.85
2018-06-02T18:11:13.829Z,52.05
2018-06-02T18:13:43.108Z,52.21
2018-06-02T18:16:12.741Z,52.34
2018-06-02T18:18:42.029Z,52.71
2018-06-02T18:21:11.318Z,52.47
2018-06-02T18:23:40.605Z,52.54
2018-06-02T18:26:09.909Z,52.83
2018-06-02T18:28:39.194Z,52.33
2018-06-02T18:31:08.478Z,52.25
2018-06-02T18:33:37.782Z,52.38
2018-06-02T18:36:07.062Z,52.21
2018-06-02T18:38:36.342Z,52.53
2018-06-02T18:41:05.630Z,52.57
2018-06-02T18:43:34.923Z,53.75
2018-06-02T18:46:04.244Z,54.40
2018-06-02T18:48:33.575Z,55.05
2018-06-02T18:51:02.852Z,55.06
2018-06-02T18:53:32.141Z,55.46
2018-06-02T18:56:01.897Z,55.78
2018-06-02T18:58:31.267Z,56.30
2018-06-02T19:01:00.603Z,56.62
2018-06-02T19:03:30.067Z,56.83
2018-06-02T19:05:59.366Z,57.12
2018-06-02T19:08:28.969Z,57.52
2018-06-02T19:10:58.234Z,58.13
2018-06-02T19:13:27.516Z,58.46
2018-06-02T19:15:56.802Z,58.71
2018-06-02T19:18:26.338Z,58.57
2018-06-02T19:20:55.399Z,58.28
2018-06-02T19:23:24.696Z,58.05
2018-06-02T19:25:53.968Z,58.37
2018-06-02T19:28:23.259Z,58.53
2018-06-02T19:30:52.556Z,58.51
2018-06-02T19:33:21.982Z,58.45
2018-06-02T19:35:51.291Z,58.86
2018-06-02T19:38:20.567Z,58.85
2018-06-02T19:40:49.843Z,59.29
2018-06-02T19:43:19.183Z,59.30
2018-06-02T19:45:48.584Z,59.45
2018-06-02T19:48:17.929Z,59.71
2018-06-02T19:50:47.357Z,59.98
2018-06-02T19:53:16.658Z,60.11
2018-06-02T19:55:45.943Z,60.13
2018-06-02T19:58:15.272Z,60.12
2018-06-02T20:00:44.566Z,59.85
2018-06-02T20:03:13.864Z,60.15
2018-06-02T20:05:43.143Z,60.05
2018-06-02T20:08:12.437Z,59.89
2018-06-02T20:10:41.790Z,59.98
2018-06-02T20:13:11.082Z,60.05
2018-06-02T20:15:40.375Z,60.12
2018-06-02T20:18:09.646Z,59.03
2018-06-02T20:20:38.948Z,58.06
2018-06-02T20:23:08.235Z,58.01
2018-06-02T20:25:37.651Z,57.74
2018-06-02T20:28:06.931Z,57.34
2018-06-02T20:30:36.219Z,57.48
2018-06-02T20:33:05.206Z,57.37
2018-06-02T20:35:34.484Z,57.03
2018-06-02T20:38:03.456Z,56.92
2018-06-02T20:40:32.739Z,56.68
2018-06-02T20:43:02.007Z,56.86
2018-06-02T20:45:31.600Z,57.19
2018-06-02T20:48:00.888Z,57.29
2018-06-02T20:50:30.355Z,57.06
2018-06-02T20:52:59.643Z,56.77
2018-06-02T20:55:28.936Z,56.46
2018-06-02T20:57:58.262Z,56.10
2018-06-02T21:00:27.528Z,55.74
2018-06-02T21:02:56.810Z,55.82
2018-06-02T21:05:26.266Z,55.84
2018-06-02T21:07:55.583Z,55.90
2018-06-02T21:10:25.031Z,55.87
2018-06-02T21:12:54.326Z,55.57
2018-06-02T21:15:23.614Z,55.65
2018-06-02T21:17:52.886Z,55.25
2018-06-02T21:20:22.177Z,55.17
2018-06-02T21:22:51.451Z,55.36
2018-06-02T21:25:20.724Z,55.29
2018-06-02T21:27:50.039Z,55.10
2018-06-02T21:30:19.307Z,55.20
2018-06-02T21:32:48.614Z,55.25
2018-06-02T21:35:17.899Z,55.37
2018-06-02T21:37:47.791Z,55.35
2018-06-02T21:40:17.071Z,55.62
2018-06-02T21:42:46.376Z,55.41
2018-06-02T21:45:15.425Z,55.57
2018-06-02T21:47:44.711Z,55.57
2018-06-02T21:50:14.034Z,55.60
2018-06-02T21:52:43.314Z,55.78
2018-06-02T21:55:12.609Z,55.84
2018-06-02T21:57:41.930Z,55.64
2018-06-02T22:00:11.343Z,55.63
2018-06-02T22:02:40.629Z,55.49
2018-06-02T22:05:09.934Z,55.91
2018-06-02T22:07:39.006Z,56.01
2018-06-02T22:10:08.343Z,56.21
2018-06-02T22:12:37.699Z,56.34
2018-06-02T22:15:06.988Z,56.62
2018-06-02T22:17:36.286Z,56.58
2018-06-02T22:20:05.550Z,56.65
2018-06-02T22:22:34.929Z,56.72
2018-06-02T22:25:03.937Z,56.83
2018-06-02T22:27:33.217Z,57.03
2018-06-02T22:30:02.507Z,56.84
2018-06-02T22:32:31.783Z,56.84
2018-06-02T22:35:01.057Z,56.99
2018-06-02T22:37:30.399Z,57.15
2018-06-02T22:39:59.675Z,57.44
2018-06-02T22:42:29.051Z,57.62
2018-06-02T22:44:58.357Z,57.83
2018-06-02T22:47:27.687Z,58.03
2018-06-02T22:49:57.036Z,58.10
2018-06-02T22:52:26.137Z,58.01
2018-06-02T22:54:55.116Z,57.98
2018-06-02T22:57:24.134Z,58.04
2018-06-02T22:59:53.098Z,57.82
2018-06-02T23:02:22.106Z,58.01
2018-06-02T23:04:50.784Z,58.17
2018-06-02T23:07:19.575Z,58.21
2018-06-02T23:09:48.581Z,58.27
2018-06-02T23:12:17.580Z,58.32
2018-06-02T23:14:46.607Z,58.05
2018-06-02T23:17:15.650Z,57.90
2018-06-02T23:19:44.646Z,58.03
2018-06-02T23:25:48.716Z,58.43
2018-06-02T23:28:18.322Z,58.23
2018-06-02T23:30:48.033Z,58.41
2018-06-02T23:33:17.907Z,58.38
2018-06-02T23:35:47.637Z,58.19
2018-06-02T23:38:17.237Z,58.00
2018-06-02T23:40:46.747Z,57.38
2018-06-02T23:43:16.352Z,57.47
2018-06-02T23:45:45.936Z,57.25
2018-06-02T23:48:15.670Z,57.35
2018-06-02T23:50:45.295Z,57.66
2018-06-02T23:53:15.026Z,57.67
2018-06-02T23:55:45.119Z,58.60
2018-06-02T23:58:14.938Z,58.27
